sensor_id;sensor_type;location;lat;lon;timestamp;pressure;altitude;pressure_sealevel;temperature;humidity
70589;BME280;58152;49.202;18.744;2023-03-01T00:10:04;98386.19;;;1.26;51.30
70589;BME280;58152;49.202;18.744;2023-03-01T00:12:44;98412.06;;;1.31;51.05
70589;BME280;58152;49.202;18.744;2023-03-01T00:15:11;98401.66;;;1.23;51.35
70589;BME280;58152;49.202;18.744;2023-03-01T00:17:37;98399.06;;;1.21;51.68
70589;BME280;58152;49.202;18.744;2023-03-01T00:20:05;98392.97;;;1.13;51.61
70589;BME280;58152;49.202;18.744;2023-03-01T00:22:36;98396.41;;;1.11;51.99
70589;BME280;58152;49.202;18.744;2023-03-01T00:25:06;98393.78;;;1.08;52.10
70589;BME280;58152;49.202;18.744;2023-03-01T00:27:34;98384.25;;;1.02;51.59
70589;BME280;58152;49.202;18.744;2023-03-01T00:30:03;98392.03;;;1.05;51.76
70589;BME280;58152;49.202;18.744;2023-03-01T00:32:30;98387.72;;;1.02;52.17
70589;BME280;58152;49.202;18.744;2023-03-01T00:35:03;98382.53;;;1.04;51.95
70589;BME280;58152;49.202;18.744;2023-03-01T00:37:43;98394.59;;;1.02;52.02
70589;BME280;58152;49.202;18.744;2023-03-01T00:47:13;98385.69;;;0.72;52.32
70589;BME280;58152;49.202;18.744;2023-03-01T00:52:35;98395.06;;;0.61;53.74
70589;BME280;58152;49.202;18.744;2023-03-01T00:55:03;98369.94;;;0.46;53.05
70589;BME280;58152;49.202;18.744;2023-03-01T00:57:33;98367.31;;;0.43;52.97
70589;BME280;58152;49.202;18.744;2023-03-01T01:06:37;98368.06;;;0.35;53.02
70589;BME280;58152;49.202;18.744;2023-03-01T01:09:16;98368.88;;;0.29;53.27
70589;BME280;58152;49.202;18.744;2023-03-01T01:11:50;98378.34;;;0.29;53.34
70589;BME280;58152;49.202;18.744;2023-03-01T01:17:35;98373.19;;;0.29;54.11
70589;BME280;58152;49.202;18.744;2023-03-01T01:20:04;98353.34;;;0.26;54.20
70589;BME280;58152;49.202;18.744;2023-03-01T01:22:30;98356.03;;;0.34;53.80
70589;BME280;58152;49.202;18.744;2023-03-01T01:24:56;98369.84;;;0.39;53.49
70589;BME280;58152;49.202;18.744;2023-03-01T01:27:51;98359.50;;;0.37;53.71
70589;BME280;58152;49.202;18.744;2023-03-01T01:30:34;98360.38;;;0.41;53.89
70589;BME280;58152;49.202;18.744;2023-03-01T01:32:59;98355.97;;;0.31;53.34
70589;BME280;58152;49.202;18.744;2023-03-01T01:35:35;98352.53;;;0.29;53.56
70589;BME280;58152;49.202;18.744;2023-03-01T01:42:35;98356.72;;;0.20;54.29
70589;BME280;58152;49.202;18.744;2023-03-01T01:45:33;98358.50;;;0.23;54.27
70589;BME280;58152;49.202;18.744;2023-03-01T01:48:14;98345.50;;;0.15;53.62
70589;BME280;58152;49.202;18.744;2023-03-01T01:50:42;98346.34;;;0.14;53.33
70589;BME280;58152;49.202;18.744;2023-03-01T01:53:16;98347.16;;;0.13;54.02
70589;BME280;58152;49.202;18.744;2023-03-01T01:55:55;98332.47;;;0.06;54.51
70589;BME280;58152;49.202;18.744;2023-03-01T01:58:25;98334.22;;;0.07;54.03
70589;BME280;58152;49.202;18.744;2023-03-01T02:00:51;98341.94;;;0.07;53.68
70589;BME280;58152;49.202;18.744;2023-03-01T02:03:20;98328.06;;;-0.03;53.53
70589;BME280;58152;49.202;18.744;2023-03-01T02:06:17;98328.09;;;-0.01;54.14
70589;BME280;58152;49.202;18.744;2023-03-01T02:08:43;98325.44;;;-0.06;53.97
70589;BME280;58152;49.202;18.744;2023-03-01T02:11:28;98320.22;;;-0.10;54.58
70589;BME280;58152;49.202;18.744;2023-03-01T02:17:14;98326.38;;;-0.01;54.51
70589;BME280;58152;49.202;18.744;2023-03-01T02:23:02;98308.19;;;-0.11;54.61
70589;BME280;58152;49.202;18.744;2023-03-01T02:25:57;98326.25;;;-0.10;54.78
70589;BME280;58152;49.202;18.744;2023-03-01T02:28:45;98320.19;;;-0.15;54.74
70589;BME280;58152;49.202;18.744;2023-03-01T02:31:17;98334.84;;;-0.09;56.87
70589;BME280;58152;49.202;18.744;2023-03-01T02:34:06;98320.97;;;-0.20;55.00
70589;BME280;58152;49.202;18.744;2023-03-01T02:36:39;98320.97;;;-0.19;54.88
70589;BME280;58152;49.202;18.744;2023-03-01T02:39:07;98328.75;;;-0.17;55.09
70589;BME280;58152;49.202;18.744;2023-03-01T02:42:31;98326.00;;;-0.31;55.93
70589;BME280;58152;49.202;18.744;2023-03-01T02:45:35;98342.34;;;-0.29;55.77
70589;BME280;58152;49.202;18.744;2023-03-01T02:55:48;98337.94;;;-0.38;56.22
70589;BME280;58152;49.202;18.744;2023-03-01T02:58:54;98348.25;;;-0.39;56.28
70589;BME280;58152;49.202;18.744;2023-03-01T03:02:00;98354.25;;;-0.37;nan
70589;BME280;58152;49.202;18.744;2023-03-01T03:11:47;98355.91;;;-0.45;56.16
70589;BME280;58152;49.202;18.744;2023-03-01T03:14:23;98344.59;;;-0.54;56.21
70589;BME280;58152;49.202;18.744;2023-03-01T03:16:53;98355.00;;;-0.46;55.77
70589;BME280;58152;49.202;18.744;2023-03-01T03:19:19;98357.63;;;-0.44;56.14
70589;BME280;58152;49.202;18.744;2023-03-01T03:21:47;98351.50;;;-0.51;56.15
70589;BME280;58152;49.202;18.744;2023-03-01T03:24:19;98357.63;;;-0.43;55.80
70589;BME280;58152;49.202;18.744;2023-03-01T03:26:46;98355.00;;;-0.47;56.18
70589;BME280;58152;49.202;18.744;2023-03-01T03:29:14;98343.66;;;-0.59;56.29
70589;BME280;58152;49.202;18.744;2023-03-01T03:31:42;98346.22;;;-0.60;56.23
70589;BME280;58152;49.202;18.744;2023-03-01T03:34:29;98358.34;;;-0.53;56.77
70589;BME280;58152;49.202;18.744;2023-03-01T03:37:05;98342.81;;;-0.59;57.02
70589;BME280;58152;49.202;18.744;2023-03-01T03:39:53;98341.06;;;-0.60;56.80
70589;BME280;58152;49.202;18.744;2023-03-01T03:43:53;98354.13;;;-0.49;56.97
70589;BME280;58152;49.202;18.744;2023-03-01T03:46:02;98351.44;;;-0.56;56.61
70589;BME280;58152;49.202;18.744;2023-03-01T03:48:34;98338.41;;;-0.65;56.57
70589;BME280;58152;49.202;18.744;2023-03-01T03:51:06;98347.06;;;-0.60;56.52
70589;BME280;58152;49.202;18.744;2023-03-01T03:53:32;98345.28;;;-0.65;56.92
70589;BME280;58152;49.202;18.744;2023-03-01T03:55:59;98340.13;;;-0.65;56.98
70589;BME280;58152;49.202;18.744;2023-03-01T03:58:25;98330.59;;;-0.71;56.54
70589;BME280;58152;49.202;18.744;2023-03-01T04:00:56;98334.94;;;-0.68;56.46
70589;BME280;58152;49.202;18.744;2023-03-01T04:03:23;98340.16;;;-0.64;56.86
70589;BME280;58152;49.202;18.744;2023-03-01T04:05:51;98328.81;;;-0.73;57.21
70589;BME280;58152;49.202;18.744;2023-03-01T04:08:22;98324.53;;;-0.74;57.02
70589;BME280;58152;49.202;18.744;2023-03-01T04:11:00;98329.72;;;-0.71;56.85
70589;BME280;58152;49.202;18.744;2023-03-01T04:13:44;98324.53;;;-0.74;57.07
70589;BME280;58152;49.202;18.744;2023-03-01T04:16:10;98318.50;;;-0.75;56.92
70589;BME280;58152;49.202;18.744;2023-03-01T04:18:36;98321.09;;;-0.75;56.79
70589;BME280;58152;49.202;18.744;2023-03-01T04:21:20;98322.84;;;-0.72;57.06
70589;BME280;58152;49.202;18.744;2023-03-01T04:23:53;98323.66;;;-0.73;57.48
70589;BME280;58152;49.202;18.744;2023-03-01T04:30:06;98307.28;;;-0.79;57.60
70589;BME280;58152;49.202;18.744;2023-03-01T04:46:03;98293.31;;;-0.94;57.57
70589;BME280;58152;49.202;18.744;2023-03-01T05:58:12;98322.63;;;-1.39;59.44
70589;BME280;58152;49.202;18.744;2023-03-01T06:00:39;98326.13;;;-1.37;59.33
70589;BME280;58152;49.202;18.744;2023-03-01T06:03:05;98301.16;;;-1.40;59.88
70589;BME280;58152;49.202;18.744;2023-03-01T06:05:31;98309.84;;;-1.35;59.64
70589;BME280;58152;49.202;18.744;2023-03-01T06:08:01;98308.13;;;-1.34;58.92
70589;BME280;58152;49.202;18.744;2023-03-01T06:10:27;98314.97;;;-1.36;58.84
70589;BME280;58152;49.202;18.744;2023-03-01T06:12:53;98311.47;;;-1.41;59.38
70589;BME280;58152;49.202;18.744;2023-03-01T06:15:18;98316.63;;;-1.38;59.66
70589;BME280;58152;49.202;18.744;2023-03-01T06:17:45;98320.13;;;-1.36;59.33
70589;BME280;58152;49.202;18.744;2023-03-01T06:20:20;98321.91;;;-1.32;59.60
70589;BME280;58152;49.202;18.744;2023-03-01T06:22:46;98311.56;;;-1.35;59.86
70589;BME280;58152;49.202;18.744;2023-03-01T06:25:14;98319.34;;;-1.31;59.40
70589;BME280;58152;49.202;18.744;2023-03-01T06:27:41;98322.78;;;-1.32;59.65
70589;BME280;58152;49.202;18.744;2023-03-01T06:30:08;98317.63;;;-1.32;59.26
70589;BME280;58152;49.202;18.744;2023-03-01T06:32:35;98320.22;;;-1.30;59.78
70589;BME280;58152;49.202;18.744;2023-03-01T06:35:00;98309.06;;;-1.31;59.40
70589;BME280;58152;49.202;18.744;2023-03-01T06:37:25;98307.34;;;-1.29;59.51
70589;BME280;58152;49.202;18.744;2023-03-01T06:39:51;98313.41;;;-1.28;59.36
70589;BME280;58152;49.202;18.744;2023-03-01T06:42:17;98310.78;;;-1.30;59.44
70589;BME280;58152;49.202;18.744;2023-03-01T06:44:43;98314.28;;;-1.26;59.78
70589;BME280;58152;49.202;18.744;2023-03-01T06:47:09;98300.53;;;-1.28;59.84
70589;BME280;58152;49.202;18.744;2023-03-01T06:49:35;98310.00;;;-1.24;59.76
70589;BME280;58152;49.202;18.744;2023-03-01T06:52:00;98304.84;;;-1.24;59.96
70589;BME280;58152;49.202;18.744;2023-03-01T06:54:25;98295.31;;;-1.30;59.38
70589;BME280;58152;49.202;18.744;2023-03-01T06:56:51;98299.69;;;-1.24;59.93
70589;BME280;58152;49.202;18.744;2023-03-01T06:59:17;98298.09;;;-1.19;59.59
70589;BME280;58152;49.202;18.744;2023-03-01T07:01:43;98302.31;;;-1.22;59.38
70589;BME280;58152;49.202;18.744;2023-03-01T07:04:09;98303.25;;;-1.19;59.84
70589;BME280;58152;49.202;18.744;2023-03-01T07:06:35;98309.28;;;-1.15;59.70
70589;BME280;58152;49.202;18.744;2023-03-01T07:09:00;98300.69;;;-1.17;59.91
70589;BME280;58152;49.202;18.744;2023-03-01T07:11:26;98305.91;;;-1.14;59.94
70589;BME280;58152;49.202;18.744;2023-03-01T07:13:54;98313.63;;;-1.13;59.90
70589;BME280;58152;49.202;18.744;2023-03-01T07:16:20;98317.09;;;-1.11;59.88
70589;BME280;58152;49.202;18.744;2023-03-01T07:18:46;98334.41;;;-1.04;59.88
70589;BME280;58152;49.202;18.744;2023-03-01T07:21:13;98318.88;;;-1.07;59.80
70589;BME280;58152;49.202;18.744;2023-03-01T07:23:40;98326.72;;;-1.00;59.36
70589;BME280;58152;49.202;18.744;2023-03-01T07:26:05;98324.97;;;-1.02;60.05
70589;BME280;58152;49.202;18.744;2023-03-01T07:28:31;98319.84;;;-1.00;59.79
70589;BME280;58152;49.202;18.744;2023-03-01T07:31:02;98315.56;;;-0.99;59.56
70589;BME280;58152;49.202;18.744;2023-03-01T07:33:27;98306.13;;;-0.99;59.51
70589;BME280;58152;49.202;18.744;2023-03-01T07:36:01;98325.09;;;-0.94;59.70
70589;BME280;58152;49.202;18.744;2023-03-01T07:38:27;98313.06;;;-0.93;59.87
70589;BME280;58152;49.202;18.744;2023-03-01T07:40:57;98305.28;;;-0.96;59.79
70589;BME280;58152;49.202;18.744;2023-03-01T07:43:22;98306.22;;;-0.93;59.68
70589;BME280;58152;49.202;18.744;2023-03-01T07:45:48;98313.16;;;-0.89;59.90
70589;BME280;58152;49.202;18.744;2023-03-01T07:48:13;98311.47;;;-0.87;59.92
70589;BME280;58152;49.202;18.744;2023-03-01T07:50:39;98308.84;;;-0.88;59.92
70589;BME280;58152;49.202;18.744;2023-03-01T07:53:04;98312.38;;;-0.83;60.49
70589;BME280;58152;49.202;18.744;2023-03-01T07:55:30;98309.00;;;-0.79;60.35
70589;BME280;58152;49.202;18.744;2023-03-01T07:57:55;98299.53;;;-0.82;60.62
70589;BME280;58152;49.202;18.744;2023-03-01T08:00:21;98302.19;;;-0.74;59.96
70589;BME280;58152;49.202;18.744;2023-03-01T08:02:46;98307.34;;;-0.74;59.92
70589;BME280;58152;49.202;18.744;2023-03-01T08:05:12;98303.03;;;-0.75;59.75
70589;BME280;58152;49.202;18.744;2023-03-01T08:07:37;98300.47;;;-0.75;59.99
70589;BME280;58152;49.202;18.744;2023-03-01T08:10:03;98300.53;;;-0.69;60.12
70589;BME280;58152;49.202;18.744;2023-03-01T08:12:29;98292.81;;;-0.70;59.49
70589;BME280;58152;49.202;18.744;2023-03-01T08:14:54;98295.38;;;-0.70;60.15
70589;BME280;58152;49.202;18.744;2023-03-01T08:17:20;98292.00;;;-0.68;59.53
70589;BME280;58152;49.202;18.744;2023-03-01T08:19:45;98296.38;;;-0.61;59.99
70589;BME280;58152;49.202;18.744;2023-03-01T08:22:11;98298.94;;;-0.61;59.86
70589;BME280;58152;49.202;18.744;2023-03-01T08:24:36;98299.84;;;-0.59;60.03
70589;BME280;58152;49.202;18.744;2023-03-01T08:27:02;98290.44;;;-0.55;59.78
70589;BME280;58152;49.202;18.744;2023-03-01T08:29:30;98304.28;;;-0.47;59.80
70589;BME280;58152;49.202;18.744;2023-03-01T08:31:55;98302.56;;;-0.46;59.38
70589;BME280;58152;49.202;18.744;2023-03-01T08:34:21;98297.47;;;-0.43;59.81
70589;BME280;58152;49.202;18.744;2023-03-01T08:36:47;98295.75;;;-0.43;59.20
70589;BME280;58152;49.202;18.744;2023-03-01T08:39:15;98298.41;;;-0.37;58.99
70589;BME280;58152;49.202;18.744;2023-03-01T08:41:41;98284.63;;;-0.39;59.30
70589;BME280;58152;49.202;18.744;2023-03-01T08:44:07;98295.88;;;-0.32;59.43
70589;BME280;58152;49.202;18.744;2023-03-01T08:46:36;98284.75;;;-0.31;59.06
70589;BME280;58152;49.202;18.744;2023-03-01T08:49:11;98295.13;;;-0.23;59.38
70589;BME280;58152;49.202;18.744;2023-03-01T08:51:37;98287.44;;;-0.22;59.05
70589;BME280;58152;49.202;18.744;2023-03-01T08:54:04;98288.34;;;-0.17;59.20
70589;BME280;58152;49.202;18.744;2023-03-01T08:56:29;98293.50;;;-0.17;58.86
70589;BME280;58152;49.202;18.744;2023-03-01T08:58:55;98280.63;;;-0.14;58.96
70589;BME280;58152;49.202;18.744;2023-03-01T09:01:20;98278.09;;;-0.09;58.49
70589;BME280;58152;49.202;18.744;2023-03-01T09:03:46;98275.63;;;-0.02;58.58
70589;BME280;58152;49.202;18.744;2023-03-01T09:06:12;98270.50;;;0.00;58.78
70589;BME280;58152;49.202;18.744;2023-03-01T09:08:40;98255.03;;;0.03;58.63
70589;BME280;58152;49.202;18.744;2023-03-01T09:11:08;98272.31;;;0.10;58.50
70589;BME280;58152;49.202;18.744;2023-03-01T09:13:33;98255.97;;;0.11;58.51
70589;BME280;58152;49.202;18.744;2023-03-01T09:16:01;98260.34;;;0.17;58.20
70589;BME280;58152;49.202;18.744;2023-03-01T09:18:27;98247.47;;;0.20;58.69
70589;BME280;58152;49.202;18.744;2023-03-01T09:20:53;98245.78;;;0.25;58.30
70589;BME280;58152;49.202;18.744;2023-03-01T09:23:23;98244.97;;;0.29;58.01
70589;BME280;58152;49.202;18.744;2023-03-01T09:25:49;98232.97;;;0.33;58.19
70589;BME280;58152;49.202;18.744;2023-03-01T09:28:14;98229.56;;;0.40;57.77
70589;BME280;58152;49.202;18.744;2023-03-01T09:30:39;98215.88;;;0.48;57.94
70589;BME280;58152;49.202;18.744;2023-03-01T09:33:05;98218.56;;;0.61;58.29
70589;BME280;58152;49.202;18.744;2023-03-01T09:35:30;98216.06;;;0.73;58.03
70589;BME280;58152;49.202;18.744;2023-03-01T09:37:55;98217.03;;;0.90;57.79
70589;BME280;58152;49.202;18.744;2023-03-01T09:40:23;98207.69;;;1.09;57.21
70589;BME280;58152;49.202;18.744;2023-03-01T09:43:02;98206.94;;;1.30;57.65
70589;BME280;58152;49.202;18.744;2023-03-01T09:45:35;98204.47;;;1.53;56.98
70589;BME280;58152;49.202;18.744;2023-03-01T09:48:04;98200.22;;;1.72;56.53
70589;BME280;58152;49.202;18.744;2023-03-01T09:50:36;98204.59;;;1.93;56.44
70589;BME280;58152;49.202;18.744;2023-03-01T09:53:07;98192.53;;;2.10;56.18
70589;BME280;58152;49.202;18.744;2023-03-01T10:07:22;98187.28;;;3.23;54.32
70589;BME280;58152;49.202;18.744;2023-03-01T10:09:52;98178.59;;;3.40;53.83
70589;BME280;58152;49.202;18.744;2023-03-01T10:12:24;98176.78;;;3.59;53.43
70589;BME280;58152;49.202;18.744;2023-03-01T10:15:00;98174.09;;;3.78;53.33
70589;BME280;58152;49.202;18.744;2023-03-01T10:17:46;98175.72;;;3.99;53.13
70589;BME280;58152;49.202;18.744;2023-03-01T10:20:21;98178.16;;;4.19;53.22
70589;BME280;58152;49.202;18.744;2023-03-01T10:22:47;98169.38;;;4.37;52.47
70589;BME280;58152;49.202;18.744;2023-03-01T10:25:17;98174.41;;;4.58;52.09
70589;BME280;58152;49.202;18.744;2023-03-01T10:27:54;98162.13;;;4.74;51.92
70589;BME280;58152;49.202;18.744;2023-03-01T10:32:59;98146.22;;;5.03;51.22
70589;BME280;58152;49.202;18.744;2023-03-01T10:35:27;98139.13;;;5.19;50.84
70589;BME280;58152;49.202;18.744;2023-03-01T10:38:10;98140.59;;;5.40;50.68
70589;BME280;58152;49.202;18.744;2023-03-01T10:40:50;98140.38;;;5.58;50.52
70589;BME280;58152;49.202;18.744;2023-03-01T10:43:16;98134.13;;;5.72;50.39
70589;BME280;58152;49.202;18.744;2023-03-01T10:45:42;98134.72;;;5.91;50.29
70589;BME280;58152;49.202;18.744;2023-03-01T10:50:34;98126.41;;;6.26;49.67
70589;BME280;58152;49.202;18.744;2023-03-01T10:53:01;98125.31;;;6.41;49.09
70589;BME280;58152;49.202;18.744;2023-03-01T10:55:38;98129.31;;;6.61;48.25
70589;BME280;58152;49.202;18.744;2023-03-01T11:00:32;98130.41;;;6.98;48.08
70589;BME280;58152;49.202;18.744;2023-03-01T11:05:25;98101.78;;;7.36;48.46
70589;BME280;58152;49.202;18.744;2023-03-01T11:07:55;98099.53;;;7.61;47.55
70589;BME280;58152;49.202;18.744;2023-03-01T11:10:35;98097.28;;;7.85;46.67
70589;BME280;58152;49.202;18.744;2023-03-01T11:13:14;98087.28;;;8.02;45.73
70589;BME280;58152;49.202;18.744;2023-03-01T11:15:41;98082.47;;;8.21;46.66
70589;BME280;58152;49.202;18.744;2023-03-01T11:18:19;98085.47;;;8.42;45.77
70589;BME280;58152;49.202;18.744;2023-03-01T11:20:46;98079.88;;;8.57;46.19
70589;BME280;58152;49.202;18.744;2023-03-01T11:23:13;98069.91;;;8.71;45.46
70589;BME280;58152;49.202;18.744;2023-03-01T11:25:42;98065.19;;;8.84;45.58
70589;BME280;58152;49.202;18.744;2023-03-01T11:28:13;98069.97;;;9.01;45.39
70589;BME280;58152;49.202;18.744;2023-03-01T11:36:39;98051.63;;;9.61;43.90
70589;BME280;58152;49.202;18.744;2023-03-01T11:39:22;98048.50;;;9.78;43.47
70589;BME280;58152;49.202;18.744;2023-03-01T11:42:01;98042.75;;;9.93;43.72
70589;BME280;58152;49.202;18.744;2023-03-01T11:44:31;98046.69;;;10.07;43.72
70589;BME280;58152;49.202;18.744;2023-03-01T11:47:11;98038.28;;;10.24;42.93
70589;BME280;58152;49.202;18.744;2023-03-01T11:52:30;98030.06;;;10.61;42.75
70589;BME280;58152;49.202;18.744;2023-03-01T12:00:51;98014.03;;;11.17;41.23
70589;BME280;58152;49.202;18.744;2023-03-01T12:17:03;97997.50;;;12.26;40.16
70589;BME280;58152;49.202;18.744;2023-03-01T12:22:09;97989.34;;;12.53;40.08
70589;BME280;58152;49.202;18.744;2023-03-01T12:32:36;97985.03;;;13.30;38.75
70589;BME280;58152;49.202;18.744;2023-03-01T12:50:26;97950.47;;;14.78;37.54
70589;BME280;58152;49.202;18.744;2023-03-01T12:52:24;97942.09;;;15.03;36.74
70589;BME280;58152;49.202;18.744;2023-03-01T12:54:53;97943.31;;;15.29;36.80
70589;BME280;58152;49.202;18.744;2023-03-01T12:57:34;97940.06;;;15.56;34.30
70589;BME280;58152;49.202;18.744;2023-03-01T13:00:22;97937.09;;;15.78;33.84
70589;BME280;58152;49.202;18.744;2023-03-01T13:03:15;97933.97;;;16.01;34.56
70589;BME280;58152;49.202;18.744;2023-03-01T13:08:39;97925.97;;;16.77;32.94
70589;BME280;58152;49.202;18.744;2023-03-01T13:11:17;97938.91;;;17.24;33.20
70589;BME280;58152;49.202;18.744;2023-03-01T13:13:44;97932.84;;;17.78;33.48
70589;BME280;58152;49.202;18.744;2023-03-01T13:19:21;97924.41;;;19.15;28.25
70589;BME280;58152;49.202;18.744;2023-03-01T13:21:49;97920.38;;;19.59;31.33
70589;BME280;58152;49.202;18.744;2023-03-01T13:24:37;97922.84;;;20.10;27.66
70589;BME280;58152;49.202;18.744;2023-03-01T13:32:30;97915.91;;;21.22;26.75
70589;BME280;58152;49.202;18.744;2023-03-01T13:37:44;97907.38;;;21.73;28.10
70589;BME280;58152;49.202;18.744;2023-03-01T13:43:40;97905.59;;;21.95;24.70
70589;BME280;58152;49.202;18.744;2023-03-01T13:45:58;97899.53;;;21.93;27.96
70589;BME280;58152;49.202;18.744;2023-03-01T13:48:27;97899.59;;;22.02;27.85
70589;BME280;58152;49.202;18.744;2023-03-01T13:51:03;97898.13;;;22.10;25.91
70589;BME280;58152;49.202;18.744;2023-03-01T13:53:34;97890.97;;;22.10;27.35
70589;BME280;58152;49.202;18.744;2023-03-01T13:56:15;97890.22;;;22.08;24.58
70589;BME280;58152;49.202;18.744;2023-03-01T13:59:18;97899.75;;;22.01;24.10
70589;BME280;58152;49.202;18.744;2023-03-01T14:01:52;97899.53;;;21.93;25.53
70589;BME280;58152;49.202;18.744;2023-03-01T14:04:23;97898.34;;;21.86;26.86
70589;BME280;58152;49.202;18.744;2023-03-01T14:06:49;97903.13;;;21.71;26.92
70589;BME280;58152;49.202;18.744;2023-03-01T14:09:27;97894.16;;;21.61;23.93
70589;BME280;58152;49.202;18.744;2023-03-01T14:20:07;97892.59;;;20.57;27.05
70589;BME280;58152;49.202;18.744;2023-03-01T14:22:35;97892.84;;;20.19;27.40
70589;BME280;58152;49.202;18.744;2023-03-01T14:25:05;97888.47;;;19.83;27.40
70589;BME280;58152;49.202;18.744;2023-03-01T14:27:39;97885.25;;;19.53;26.34
70589;BME280;58152;49.202;18.744;2023-03-01T14:30:25;97887.91;;;19.29;26.29
70589;BME280;58152;49.202;18.744;2023-03-01T14:32:53;97884.88;;;18.97;27.81
70589;BME280;58152;49.202;18.744;2023-03-01T14:35:38;97886.19;;;18.79;27.79
70589;BME280;58152;49.202;18.744;2023-03-01T14:38:04;97883.94;;;18.60;28.41
70589;BME280;58152;49.202;18.744;2023-03-01T14:40:32;97881.78;;;18.40;28.25
70589;BME280;58152;49.202;18.744;2023-03-01T14:43:00;97877.53;;;18.24;28.46
70589;BME280;58152;49.202;18.744;2023-03-01T14:45:30;97881.97;;;18.11;28.44
70589;BME280;58152;49.202;18.744;2023-03-01T14:47:59;97881.09;;;17.98;28.19
70589;BME280;58152;49.202;18.744;2023-03-01T14:50:28;97879.34;;;17.84;28.49
70589;BME280;58152;49.202;18.744;2023-03-01T14:52:57;97878.81;;;17.79;28.77
70589;BME280;58152;49.202;18.744;2023-03-01T14:57:56;97886.25;;;17.60;28.43
70589;BME280;58152;49.202;18.744;2023-03-01T15:00:25;97884.09;;;17.52;28.78
70589;BME280;58152;49.202;18.744;2023-03-01T15:02:53;97876.84;;;17.41;28.87
70589;BME280;58152;49.202;18.744;2023-03-01T15:05:29;97883.59;;;17.33;27.53
70589;BME280;58152;49.202;18.744;2023-03-01T15:07:57;97886.72;;;17.25;29.09
70589;BME280;58152;49.202;18.744;2023-03-01T15:10:26;97882.66;;;17.19;29.21
70589;BME280;58152;49.202;18.744;2023-03-01T15:12:52;97889.41;;;17.11;29.15
70589;BME280;58152;49.202;18.744;2023-03-01T15:15:43;97875.94;;;16.99;27.33
70589;BME280;58152;49.202;18.744;2023-03-01T15:20:49;97889.16;;;16.72;29.58
70589;BME280;58152;49.202;18.744;2023-03-01T15:25:48;97892.22;;;16.50;29.45
70589;BME280;58152;49.202;18.744;2023-03-01T15:28:26;97885.84;;;16.39;29.91
70589;BME280;58152;49.202;18.744;2023-03-01T15:30:57;97887.25;;;16.30;29.79
70589;BME280;58152;49.202;18.744;2023-03-01T15:35:59;97876.59;;;16.01;29.46
70589;BME280;58152;49.202;18.744;2023-03-01T15:41:31;97897.41;;;15.78;28.51
70589;BME280;58152;49.202;18.744;2023-03-01T15:43:59;97890.66;;;15.56;30.11
70589;BME280;58152;49.202;18.744;2023-03-01T15:46:31;97890.34;;;15.46;29.85
70589;BME280;58152;49.202;18.744;2023-03-01T15:49:05;97890.28;;;15.32;29.73
70589;BME280;58152;49.202;18.744;2023-03-01T15:51:43;97888.41;;;15.18;30.63
70589;BME280;58152;49.202;18.744;2023-03-01T15:54:19;97884.97;;;15.00;29.88
70589;BME280;58152;49.202;18.744;2023-03-01T15:56:45;97885.28;;;14.79;30.83
70589;BME280;58152;49.202;18.744;2023-03-01T15:59:12;97893.25;;;14.61;31.10
70589;BME280;58152;49.202;18.744;2023-03-01T16:01:41;97890.09;;;14.37;31.47
70589;BME280;58152;49.202;18.744;2023-03-01T16:04:09;97899.97;;;14.16;31.53
70589;BME280;58152;49.202;18.744;2023-03-01T16:06:36;97901.59;;;13.84;31.84
70589;BME280;58152;49.202;18.744;2023-03-01T16:09:04;97901.09;;;13.59;32.38
70589;BME280;58152;49.202;18.744;2023-03-01T16:11:29;97905.53;;;13.39;32.67
70589;BME280;58152;49.202;18.744;2023-03-01T16:13:56;97907.13;;;13.25;32.63
70589;BME280;58152;49.202;18.744;2023-03-01T16:16:21;97903.34;;;13.11;32.89
70589;BME280;58152;49.202;18.744;2023-03-01T16:18:47;97902.91;;;13.02;33.12
70589;BME280;58152;49.202;18.744;2023-03-01T16:21:20;97908.66;;;12.91;32.62
70589;BME280;58152;49.202;18.744;2023-03-01T16:23:46;97897.91;;;12.77;33.39
70589;BME280;58152;49.202;18.744;2023-03-01T16:26:12;97910.41;;;12.71;33.56
70589;BME280;58152;49.202;18.744;2023-03-01T16:28:39;97905.66;;;12.61;33.21
70589;BME280;58152;49.202;18.744;2023-03-01T16:31:04;97910.38;;;12.53;33.80
70589;BME280;58152;49.202;18.744;2023-03-01T16:33:30;97911.72;;;12.42;33.37
70589;BME280;58152;49.202;18.744;2023-03-01T16:35:56;97913.81;;;12.34;33.94
70589;BME280;58152;49.202;18.744;2023-03-01T16:38:22;97912.66;;;12.21;33.80
70589;BME280;58152;49.202;18.744;2023-03-01T16:40:49;97918.28;;;12.12;33.78
70589;BME280;58152;49.202;18.744;2023-03-01T16:43:15;97920.47;;;12.02;34.30
70589;BME280;58152;49.202;18.744;2023-03-01T16:45:41;97921.63;;;11.95;34.51
70589;BME280;58152;49.202;18.744;2023-03-01T16:48:10;97920.22;;;11.86;34.49
70589;BME280;58152;49.202;18.744;2023-03-01T16:50:35;97920.38;;;11.82;34.12
70589;BME280;58152;49.202;18.744;2023-03-01T16:53:01;97936.25;;;11.80;34.72
70589;BME280;58152;49.202;18.744;2023-03-01T16:55:27;97930.44;;;11.72;34.51
70589;BME280;58152;49.202;18.744;2023-03-01T16:57:53;97934.25;;;11.65;34.52
70589;BME280;58152;49.202;18.744;2023-03-01T17:00:18;97937.16;;;11.57;34.99
70589;BME280;58152;49.202;18.744;2023-03-01T17:02:44;97944.47;;;11.51;34.47
70589;BME280;58152;49.202;18.744;2023-03-01T17:05:10;97950.78;;;11.45;34.92
70589;BME280;58152;49.202;18.744;2023-03-01T17:07:39;97955.50;;;11.37;34.82
70589;BME280;58152;49.202;18.744;2023-03-01T17:10:07;97963.69;;;11.29;34.83
70589;BME280;58152;49.202;18.744;2023-03-01T17:12:35;97960.44;;;11.23;35.47
70589;BME280;58152;49.202;18.744;2023-03-01T17:15:01;97958.84;;;11.18;35.30
70589;BME280;58152;49.202;18.744;2023-03-01T17:17:27;97952.09;;;11.11;35.57
70589;BME280;58152;49.202;18.744;2023-03-01T17:19:52;97958.38;;;11.07;35.30
70589;BME280;58152;49.202;18.744;2023-03-01T17:22:18;97955.19;;;10.99;35.43
70589;BME280;58152;49.202;18.744;2023-03-01T17:24:44;97961.66;;;10.90;35.70
70589;BME280;58152;49.202;18.744;2023-03-01T17:27:11;97960.09;;;10.85;35.47